Walden-Jackson Cnty AP, Walde, CO

11:04 AM MST on November 15, 2019 (GMT -0700)
Walden-Jackson Cnty AP, Walde

Weather History for K33V - October, 2019

Change the Weather History Date:

Wednesday, October 23, 2019

  Actual Average Record
Temperature  
Mean Temperature 30 °F -  
Max Temperature 39 °F - 66 °F (2016)
Min Temperature 21 °F - 23 °F (2013)
Degree Days  
Heating Degree Days 35    
Month to date heating degree days 661  
Cooling Degree Days 0    
Month to date cooling degree days 0  
Moisture  
Dew Point 22 °F    
Average Humidity 71    
Maximum Humidity 93    
Minimum Humidity 48    
Precipitation  
Precipitation 0.00 in - 0.00 in (2019)
Snow  
Snow 0.00 in - - ()
Snow Depth 0.00 in    
Sea Level Pressure  
Sea Level Pressure 30.17 in    
Wind  
Wind Speed 12 mph ()    
Max Wind Speed 22 mph    
Max Gust Speed 30 mph    
Visibility 8.3 miles    
Events      
T = Trace of Precipitation, MM = Missing Value Source: Averaged Metar Reports

Daily Weather History Graph

Daily Weather History Graph

Search for Another Location

Airport or City:

Astronomy

Oct. 23, 2019 Rise Set
Actual Time 7:24 AM MDT 6:13 PM MDT
Civil Twilight 6:57 AM MDT 6:41 PM MDT
Nautical Twilight 6:25 AM MDT 7:13 PM MDT
Astronomical Twilight 5:53 AM MDT 7:44 PM MDT
Moon 1:44 AM MDT (10/23) 4:07 PM MDT (10/23)
Length of Visible Light 11h 44m
Length of Day
10h 48m
Waning Crescent, 26% of the Moon is Illuminated
Oct 23
Waning Crescent
Oct 27
New
Nov 4
First Quarter
Nov 12
Full
Nov 19
Last Quarter

Hourly Weather History & Observations

Time (MDT) Temp. Windchill Dew Point Humidity Pressure Visibility Wind Dir Wind Speed Gust Speed Precip Events Conditions
12:15 AM 39.2 °F 32.5 °F 23.0 °F 52% 30.13 in 10.0 mi West 10.4 mph - N/A   Overcast
12:35 AM 39.2 °F 30.8 °F 23.0 °F 52% 30.13 in 10.0 mi WSW 15.0 mph - N/A   Overcast
1:15 AM 37.4 °F 28.9 °F 23.0 °F 56% 30.11 in 10.0 mi WSW 13.8 mph 25.3 mph N/A   Overcast
1:35 AM 39.2 °F 29.3 °F 23.0 °F 52% 30.11 in 10.0 mi WSW 20.7 mph 29.9 mph N/A   Overcast
1:55 AM 37.4 °F 27.5 °F 23.0 °F 56% 30.11 in 10.0 mi WSW 18.4 mph 25.3 mph N/A   Overcast
2:15 AM 37.4 °F 28.5 °F 21.2 °F 52% 30.11 in 10.0 mi West 15.0 mph - N/A   Overcast
2:35 AM 37.4 °F 28.9 °F 21.2 °F 52% 30.11 in 10.0 mi West 13.8 mph 18.4 mph N/A   Overcast
2:55 AM 37.4 °F 27.8 °F 21.2 °F 52% 30.11 in 10.0 mi West 17.3 mph 27.6 mph N/A   Overcast
3:35 AM 37.4 °F 27.5 °F 21.2 °F 52% 30.11 in 10.0 mi West 18.4 mph 27.6 mph N/A   Overcast
3:55 AM 37.4 °F 27.8 °F 19.4 °F 48% 30.10 in 10.0 mi West 17.3 mph 21.9 mph N/A   Overcast
4:15 AM 37.4 °F 27.5 °F 21.2 °F 52% 30.10 in 10.0 mi West 18.4 mph 24.2 mph N/A   Overcast
4:35 AM 37.4 °F 26.9 °F 21.2 °F 52% 30.10 in 10.0 mi West 20.7 mph 27.6 mph N/A   Overcast
4:55 AM 35.6 °F 27.1 °F 19.4 °F 52% 30.11 in 10.0 mi WNW 12.7 mph 24.2 mph N/A   Overcast
5:15 AM 33.8 °F 24.3 °F 19.4 °F 56% 30.11 in 10.0 mi West 13.8 mph - N/A   Mostly Cloudy
5:35 AM 33.8 °F 24.3 °F 23.0 °F 65% 30.11 in 10.0 mi WNW 13.8 mph 17.3 mph N/A   Overcast
5:55 AM 32.0 °F 22.5 °F 23.0 °F 69% 30.13 in 10.0 mi NW 12.7 mph 17.3 mph N/A   Overcast
6:15 AM 32.0 °F 22.5 °F 23.0 °F 69% 30.13 in 10.0 mi WNW 12.7 mph 18.4 mph N/A   Mostly Cloudy
6:35 AM 32.0 °F 23.0 °F 21.2 °F 64% 30.13 in 10.0 mi West 11.5 mph 19.6 mph N/A   Mostly Cloudy
6:55 AM 32.0 °F 23.6 °F 19.4 °F 60% 30.13 in 10.0 mi West 10.4 mph - N/A   Overcast
7:15 AM 32.0 °F 23.6 °F 19.4 °F 60% 30.13 in 10.0 mi West 10.4 mph - N/A   Overcast
7:35 AM 33.8 °F 24.3 °F 19.4 °F 56% 30.13 in 10.0 mi West 13.8 mph - N/A   Overcast
7:55 AM 33.8 °F 25.8 °F 19.4 °F 56% 30.12 in 10.0 mi West 10.4 mph - N/A   Mostly Cloudy
8:15 AM 33.8 °F 25.3 °F 19.4 °F 56% 30.13 in 10.0 mi West 11.5 mph - N/A   Mostly Cloudy
8:35 AM 33.8 °F 23.9 °F 19.4 °F 56% 30.13 in 10.0 mi West 15.0 mph - N/A   Overcast
8:55 AM 33.8 °F 24.3 °F 23.0 °F 65% 30.14 in 10.0 mi West 13.8 mph 23.0 mph N/A   Overcast
9:15 AM 32.0 °F 22.1 °F 23.0 °F 69% 30.14 in 10.0 mi West 13.8 mph 19.6 mph N/A   Overcast
9:35 AM 32.0 °F 24.2 °F 24.8 °F 75% 30.14 in 10.0 mi West 9.2 mph - N/A   Overcast
9:55 AM 33.8 °F 25.3 °F 24.8 °F 70% 30.14 in 10.0 mi West 11.5 mph - N/A   Overcast
10:15 AM 33.8 °F 25.3 °F 24.8 °F 70% 30.14 in 10.0 mi West 11.5 mph - N/A   Overcast
10:35 AM 33.8 °F 25.8 °F 24.8 °F 70% 30.14 in 10.0 mi WSW 10.4 mph - N/A   Overcast
10:55 AM 33.8 °F 25.8 °F 23.0 °F 65% 30.13 in 10.0 mi WSW 10.4 mph - N/A   Overcast
11:15 AM 33.8 °F 24.8 °F 24.8 °F 70% 30.14 in 10.0 mi NW 12.7 mph - N/A   Overcast
11:35 AM 32.0 °F 21.6 °F 26.6 °F 80% 30.14 in 5.0 mi NNW 15.0 mph - N/A   Overcast
11:55 AM 33.8 °F 25.8 °F 26.6 °F 75% 30.15 in 10.0 mi WNW 10.4 mph - N/A   Overcast
12:15 PM 32.0 °F 19.5 °F 21.2 °F 64% 30.15 in 10.0 mi North 21.9 mph 27.6 mph N/A   Overcast
12:35 PM 26.6 °F 13.1 °F 23.0 °F 86% 30.15 in 1.0 mi North 19.6 mph 26.5 mph N/A   Overcast
12:55 PM 28.4 °F 17.0 °F 23.0 °F 80% 30.16 in 5.0 mi NNW 15.0 mph 23.0 mph N/A   Overcast
1:15 PM 26.6 °F 16.2 °F 21.2 °F 80% 30.16 in 1.0 mi NNW 11.5 mph - N/A   Overcast
1:35 PM 26.6 °F 15.7 °F 23.0 °F 86% 30.16 in 0.5 mi NW 12.7 mph - N/A   Overcast
1:55 PM 26.6 °F 17.5 °F 23.0 °F 86% 30.17 in 0.5 mi NW 9.2 mph - N/A   Overcast
2:15 PM 26.6 °F 20.0 °F 23.0 °F 86% 30.16 in 1.0 mi NW 5.8 mph - N/A   Overcast
2:35 PM 26.6 °F 21.2 °F 23.0 °F 86% 30.16 in 1.2 mi NW 4.6 mph - N/A   Overcast
2:55 PM 30.2 °F - 24.8 °F 80% 30.16 in 4.0 mi Calm Calm - N/A   Overcast
3:15 PM 30.2 °F 24.3 °F 24.8 °F 80% 30.17 in 2.0 mi North 5.8 mph - N/A   Overcast
3:35 PM 30.2 °F 23.4 °F 24.8 °F 80% 30.17 in 5.0 mi NNW 6.9 mph - N/A   Overcast
3:55 PM 30.2 °F 21.3 °F 23.0 °F 75% 30.16 in 10.0 mi North 10.4 mph - N/A   Overcast
4:15 PM 30.2 °F 24.3 °F 23.0 °F 75% 30.17 in 5.0 mi NW 5.8 mph - N/A   Overcast
4:35 PM 30.2 °F 20.8 °F 23.0 °F 75% 30.17 in 10.0 mi North 11.5 mph - N/A   Overcast
4:55 PM 30.2 °F 20.2 °F 23.0 °F 75% 30.18 in 10.0 mi NNW 12.7 mph - N/A   Overcast
5:15 PM 26.6 °F 15.2 °F 23.0 °F 86% 30.18 in 2.0 mi NNW 13.8 mph - N/A   Overcast
5:35 PM 26.6 °F 16.8 °F 23.0 °F 86% - 2.0 mi NNW 10.4 mph - N/A   Overcast
5:55 PM 26.6 °F 19.1 °F 23.0 °F 86% 30.21 in 2.5 mi NW 6.9 mph - N/A   Overcast
6:15 PM 24.8 °F 19.1 °F 23.0 °F 93% 30.21 in 10.0 mi North 4.6 mph - N/A   Overcast
6:35 PM 26.6 °F 21.2 °F 21.2 °F 80% 30.21 in 10.0 mi NNW 4.6 mph - N/A   Overcast
6:55 PM 24.8 °F 16.9 °F 21.2 °F 86% 30.23 in 10.0 mi NNW 6.9 mph - N/A   Overcast
7:15 PM 24.8 °F 16.1 °F 21.2 °F 86% 30.23 in 10.0 mi NNW 8.1 mph - N/A   Overcast
7:35 PM 24.8 °F 15.3 °F 21.2 °F 86% 30.23 in 10.0 mi North 9.2 mph - N/A   Overcast
7:55 PM 24.8 °F 16.1 °F 21.2 °F 86% 30.25 in 10.0 mi North 8.1 mph - N/A   Overcast
8:15 PM 24.8 °F 20.5 °F 21.2 °F 86% 30.25 in 10.0 mi North 3.5 mph - N/A   Overcast
8:35 PM 24.8 °F 17.9 °F 21.2 °F 86% 30.25 in 7.0 mi NNW 5.8 mph - N/A   Overcast
8:55 PM 24.8 °F 16.9 °F 19.4 °F 80% 30.25 in 7.0 mi North 6.9 mph - N/A   Mostly Cloudy
9:15 PM 23.0 °F 12.4 °F 17.6 °F 80% 30.25 in 10.0 mi North 10.4 mph - N/A   Mostly Cloudy
9:35 PM 21.2 °F 10.9 °F 17.6 °F 86% 30.25 in 10.0 mi North 9.2 mph - N/A   Scattered Clouds
9:55 PM 23.0 °F 15.8 °F 17.6 °F 80% 30.27 in 10.0 mi NNE 5.8 mph - N/A   Mostly Cloudy
10:15 PM 23.0 °F 17.0 °F 17.6 °F 80% 30.28 in 10.0 mi ENE 4.6 mph - N/A   Overcast
10:35 PM 24.8 °F 14.6 °F 17.6 °F 74% 30.28 in 10.0 mi NE 10.4 mph - N/A   Overcast
10:55 PM 23.0 °F 11.7 °F 17.6 °F 80% 30.29 in 10.0 mi NE 11.5 mph - N/A   Overcast
11:15 PM 23.0 °F 14.7 °F 15.8 °F 74% 30.29 in 10.0 mi NE 6.9 mph - N/A   Overcast
11:35 PM 23.0 °F 11.7 °F 15.8 °F 74% 30.29 in 10.0 mi NNE 11.5 mph - N/A   Overcast
11:55 PM 23.0 °F 13.9 °F 15.8 °F 74% 30.28 in 10.0 mi NNE 8.1 mph - N/A   Overcast